createdAt,value
2022-09-13T00:01:23.433Z,77.79
2022-09-13T00:03:52.232Z,77.39
2022-09-13T00:06:22.148Z,78.10
2022-09-13T00:08:51.195Z,78.55
2022-09-13T00:11:25.615Z,78.87
2022-09-13T00:13:56.062Z,79.02
2022-09-13T00:16:27.625Z,78.75
2022-09-13T00:18:57.514Z,78.63
2022-09-13T00:21:27.911Z,78.74
2022-09-13T00:23:57.033Z,78.74
2022-09-13T00:26:31.362Z,78.44
2022-09-13T00:29:00.748Z,79.11
2022-09-13T00:31:30.356Z,79.05
2022-09-13T00:34:01.294Z,78.88
2022-09-13T00:36:30.763Z,79.21
2022-09-13T00:39:01.106Z,79.21
2022-09-13T00:41:31.292Z,79.19
2022-09-13T00:44:03.133Z,78.91
2022-09-13T00:46:40.012Z,78.91
2022-09-13T00:49:19.788Z,79.47
2022-09-13T00:51:54.107Z,79.71
2022-09-13T00:54:28.367Z,79.65
2022-09-13T00:57:03.062Z,79.58
2022-09-13T00:59:39.503Z,79.45
2022-09-13T01:02:09.242Z,79.26
2022-09-13T01:04:40.433Z,79.10
2022-09-13T01:07:14.745Z,79.38
2022-09-13T01:09:50.162Z,79.56
2022-09-13T01:12:38.646Z,79.66
2022-09-13T01:15:09.044Z,80.04
2022-09-13T01:17:40.392Z,79.82
2022-09-13T01:20:12.484Z,79.79
2022-09-13T01:23:55.851Z,79.73
2022-09-13T01:27:12.350Z,79.68
2022-09-13T01:30:16.065Z,79.77
2022-09-13T01:33:14.019Z,80.10
2022-09-13T01:36:07.188Z,80.42
2022-09-13T01:38:53.500Z,79.97
2022-09-13T01:42:01.647Z,80.78
2022-09-13T01:44:56.276Z,80.92
2022-09-13T01:47:34.065Z,80.75
2022-09-13T01:50:19.858Z,80.46
2022-09-13T01:52:57.486Z,80.96
2022-09-13T01:55:35.751Z,81.04
2022-09-13T01:58:21.973Z,80.78
2022-09-13T02:01:03.356Z,80.69
2022-09-13T02:03:41.149Z,80.85
2022-09-13T02:06:16.924Z,80.85
2022-09-13T02:08:49.932Z,80.96
2022-09-13T02:11:21.037Z,81.29
2022-09-13T02:13:59.908Z,80.94
2022-09-13T02:16:34.351Z,81.17
2022-09-13T02:19:15.392Z,81.28
2022-09-13T02:21:50.839Z,81.34
2022-09-13T02:24:26.392Z,80.99
2022-09-13T02:26:59.794Z,81.17
2022-09-13T02:29:32.176Z,81.48
2022-09-13T02:32:10.546Z,81.76
2022-09-13T02:34:45.538Z,81.56
2022-09-13T02:37:15.121Z,80.96
2022-09-13T02:39:55.545Z,81.26
2022-09-13T02:42:31.999Z,80.95
2022-09-13T02:45:01.311Z,81.64
2022-09-13T02:47:44.805Z,81.86
2022-09-13T02:50:35.370Z,81.53
2022-09-13T02:53:13.801Z,81.84
2022-09-13T02:55:55.201Z,81.70
2022-09-13T02:58:34.854Z,81.65
2022-09-13T03:01:04.010Z,82.15
2022-09-13T03:03:32.821Z,82.15
2022-09-13T03:06:03.072Z,81.98
2022-09-13T03:08:32.363Z,82.19
2022-09-13T03:11:20.582Z,82.01
2022-09-13T03:14:19.912Z,82.05
2022-09-13T03:17:15.041Z,81.78
2022-09-13T03:20:18.568Z,81.71
2022-09-13T03:23:31.106Z,82.46
2022-09-13T03:26:28.730Z,82.78
2022-09-13T03:29:17.215Z,82.52
2022-09-13T03:32:00.257Z,82.68
2022-09-13T03:34:39.676Z,82.73
2022-09-13T03:37:18.724Z,82.80
2022-09-13T03:39:58.129Z,83.02
2022-09-13T03:42:35.143Z,83.18
2022-09-13T03:45:07.433Z,83.01
2022-09-13T03:47:42.450Z,83.11
2022-09-13T03:50:15.963Z,83.50
2022-09-13T03:52:47.499Z,83.54
2022-09-13T03:55:20.589Z,83.84
2022-09-13T03:57:49.193Z,83.81
2022-09-13T04:00:19.367Z,84.03
2022-09-13T04:02:48.114Z,83.85
2022-09-13T04:05:16.987Z,84.06
2022-09-13T04:07:45.705Z,83.62
2022-09-13T04:10:14.454Z,83.83
2022-09-13T04:12:44.781Z,83.85
2022-09-13T04:15:13.825Z,84.00
2022-09-13T04:17:42.612Z,84.03
2022-09-13T04:20:11.578Z,83.64
2022-09-13T04:22:40.132Z,83.76
2022-09-13T04:25:10.157Z,83.48
2022-09-13T04:27:38.740Z,83.64
2022-09-13T04:30:11.077Z,83.88
2022-09-13T04:32:39.592Z,83.42
2022-09-13T04:35:09.485Z,84.07
2022-09-13T04:37:38.999Z,83.78
2022-09-13T04:40:09.884Z,83.72
2022-09-13T04:42:38.740Z,83.68
2022-09-13T04:45:10.771Z,83.76
2022-09-13T04:48:14.190Z,83.52
2022-09-13T04:50:43.873Z,83.71
2022-09-13T04:53:15.526Z,83.64
2022-09-13T04:55:44.831Z,83.55
2022-09-13T04:58:13.477Z,83.63
2022-09-13T05:00:43.563Z,83.79
2022-09-13T05:03:12.259Z,83.72
2022-09-13T05:05:40.832Z,84.20
2022-09-13T05:08:09.417Z,84.39
2022-09-13T05:10:38.022Z,84.07
2022-09-13T05:13:06.819Z,84.20
2022-09-13T05:15:35.456Z,84.43
2022-09-13T05:18:05.561Z,84.79
2022-09-13T05:20:34.528Z,84.73
2022-09-13T05:23:03.638Z,84.94
2022-09-13T05:25:32.251Z,85.13
2022-09-13T05:28:00.797Z,85.09
2022-09-13T05:30:29.394Z,85.17
2022-09-13T05:32:58.476Z,85.21
2022-09-13T05:35:28.463Z,85.19
2022-09-13T05:37:57.048Z,85.42
2022-09-13T05:40:25.636Z,85.63
2022-09-13T05:42:55.240Z,85.75
2022-09-13T05:45:23.838Z,85.85
2022-09-13T05:47:53.156Z,86.13
2022-09-13T05:50:45.150Z,85.98
2022-09-13T05:53:11.939Z,85.98
2022-09-13T05:55:40.571Z,86.44
2022-09-13T05:58:09.224Z,86.85
2022-09-13T06:00:38.084Z,86.72
2022-09-13T06:03:06.718Z,86.45
2022-09-13T06:05:35.465Z,86.53
2022-09-13T06:08:04.426Z,87.10
2022-09-13T06:10:34.432Z,87.28
2022-09-13T06:13:02.990Z,87.80
2022-09-13T06:15:31.671Z,88.18
2022-09-13T06:18:00.232Z,88.45
2022-09-13T06:20:28.813Z,89.00
2022-09-13T06:22:57.452Z,88.82
2022-09-13T06:25:26.070Z,89.48
2022-09-13T06:27:56.039Z,89.99
2022-09-13T06:30:24.683Z,90.00
2022-09-13T06:32:53.312Z,90.27
2022-09-13T06:35:22.427Z,90.45
2022-09-13T06:37:51.071Z,90.38
2022-09-13T06:40:25.242Z,90.87
2022-09-13T06:42:55.489Z,91.68
2022-09-13T06:45:24.085Z,91.93
2022-09-13T06:47:56.138Z,92.30
2022-09-13T06:50:24.702Z,92.58
2022-09-13T06:52:53.319Z,93.26
2022-09-13T06:55:22.209Z,93.65
2022-09-13T06:57:50.794Z,93.78
2022-09-13T07:00:21.729Z,93.95
2022-09-13T07:02:53.200Z,94.22
2022-09-13T07:05:22.314Z,93.96
2022-09-13T07:07:50.904Z,94.28
2022-09-13T07:10:19.720Z,94.79
2022-09-13T07:12:48.400Z,95.53
2022-09-13T07:15:17.177Z,95.65
2022-09-13T07:17:47.128Z,95.61
2022-09-13T07:20:16.058Z,95.64
2022-09-13T07:22:44.730Z,95.89
2022-09-13T07:25:13.295Z,95.80
2022-09-13T07:27:42.126Z,96.14
2022-09-13T07:30:11.339Z,96.50
2022-09-13T07:32:39.926Z,96.03
2022-09-13T07:35:10.217Z,95.69
2022-09-13T07:37:38.802Z,95.57
2022-09-13T07:40:09.369Z,94.32
2022-09-13T07:42:38.110Z,94.15
2022-09-13T07:45:07.894Z,93.26
2022-09-13T07:47:36.618Z,93.08
2022-09-13T07:50:05.642Z,93.09
2022-09-13T07:52:38.121Z,93.29
2022-09-13T07:55:07.445Z,93.56
2022-09-13T07:57:36.112Z,93.85
2022-09-13T08:00:06.558Z,93.79
2022-09-13T08:02:40.399Z,94.25
2022-09-13T08:05:09.719Z,94.16
2022-09-13T08:07:39.717Z,94.36
2022-09-13T08:10:09.142Z,94.66
2022-09-13T08:12:37.840Z,95.10
2022-09-13T08:15:07.778Z,95.34
2022-09-13T08:17:36.385Z,95.36
2022-09-13T08:20:06.830Z,95.53
2022-09-13T08:22:35.405Z,95.94
2022-09-13T08:25:06.309Z,96.63
2022-09-13T08:27:34.995Z,96.53
2022-09-13T08:30:03.867Z,96.55
2022-09-13T08:32:32.514Z,96.01
2022-09-13T08:35:01.302Z,95.79
2022-09-13T08:37:29.897Z,96.13
2022-09-13T08:39:58.515Z,95.98
2022-09-13T08:42:47.492Z,96.19
2022-09-13T08:45:17.154Z,96.22
2022-09-13T08:47:54.681Z,96.44
2022-09-13T08:50:29.216Z,96.90
2022-09-13T08:53:16.297Z,96.69
2022-09-13T08:55:59.289Z,96.38
2022-09-13T08:59:05.112Z,96.83
2022-09-13T09:01:51.393Z,97.18
2022-09-13T09:04:38.662Z,96.80
2022-09-13T09:07:14.423Z,96.96
2022-09-13T09:09:51.044Z,96.84
2022-09-13T09:12:31.832Z,96.72
2022-09-13T09:15:13.858Z,96.36
2022-09-13T09:17:56.464Z,95.93
2022-09-13T09:20:33.817Z,95.32
2022-09-13T09:23:16.755Z,95.83
2022-09-13T09:25:52.946Z,95.89
2022-09-13T09:28:21.629Z,95.64
2022-09-13T09:31:04.711Z,95.71
2022-09-13T09:33:57.423Z,94.99
2022-09-13T09:36:39.443Z,94.58
2022-09-13T09:39:12.436Z,93.74
2022-09-13T09:41:41.548Z,94.62
2022-09-13T09:44:20.391Z,94.23
2022-09-13T09:46:57.325Z,93.27
2022-09-13T09:49:53.776Z,92.44
2022-09-13T09:52:32.250Z,92.18
2022-09-13T09:55:15.223Z,91.42
2022-09-13T09:57:57.251Z,90.36
2022-09-13T10:00:30.102Z,89.69
2022-09-13T10:03:05.734Z,89.71
2022-09-13T10:05:36.521Z,89.49
2022-09-13T10:08:09.563Z,86.57
2022-09-13T10:10:43.689Z,87.19
2022-09-13T10:13:18.583Z,85.47
2022-09-13T10:15:59.425Z,83.84
2022-09-13T10:18:43.849Z,83.74
2022-09-13T10:21:25.895Z,82.23
2022-09-13T10:24:18.264Z,80.46
2022-09-13T10:26:47.745Z,78.89
2022-09-13T10:29:21.824Z,77.98
2022-09-13T10:31:55.435Z,71.27
2022-09-13T10:34:38.235Z,72.84
2022-09-13T10:37:17.809Z,74.10
2022-09-13T10:40:00.396Z,74.46
2022-09-13T10:42:31.162Z,76.47
2022-09-13T10:45:03.397Z,77.60
2022-09-13T10:47:38.920Z,74.37
2022-09-13T10:50:22.945Z,68.83
2022-09-13T10:52:53.363Z,70.86
2022-09-13T10:55:34.238Z,72.04
2022-09-13T10:58:20.034Z,70.88
2022-09-13T11:01:17.166Z,67.71
2022-09-13T11:04:30.656Z,63.73
2022-09-13T11:07:22.333Z,64.62
2022-09-13T11:10:02.734Z,65.53
2022-09-13T11:12:44.697Z,61.82
2022-09-13T11:15:30.532Z,60.10
2022-09-13T11:18:33.413Z,58.37
2022-09-13T11:21:22.775Z,59.07
2022-09-13T11:24:13.712Z,58.14
2022-09-13T11:26:59.749Z,60.69
2022-09-13T11:29:52.345Z,59.94
2022-09-13T11:32:41.257Z,63.41
2022-09-13T11:35:35.996Z,64.24
2022-09-13T11:38:28.747Z,63.16
2022-09-13T11:41:12.235Z,62.16
2022-09-13T11:44:19.368Z,59.93
2022-09-13T11:47:00.466Z,60.94
2022-09-13T11:50:02.016Z,59.54
2022-09-13T11:52:49.051Z,57.01
2022-09-13T11:55:25.075Z,55.49
2022-09-13T11:58:00.633Z,56.25
2022-09-13T12:00:36.259Z,57.53
2022-09-13T12:03:17.712Z,58.79
2022-09-13T12:05:53.686Z,60.61
2022-09-13T12:08:30.532Z,58.62
2022-09-13T12:11:05.309Z,60.63
2022-09-13T12:13:48.023Z,60.54
2022-09-13T12:16:25.209Z,58.26
2022-09-13T12:19:18.561Z,60.19
2022-09-13T12:21:51.219Z,61.69
2022-09-13T12:24:33.420Z,62.00
2022-09-13T12:27:11.799Z,61.01
2022-09-13T12:29:51.979Z,56.87
2022-09-13T12:32:23.748Z,58.50
2022-09-13T12:35:02.135Z,59.57
2022-09-13T12:38:36.775Z,59.01
2022-09-13T12:41:43.181Z,60.94
2022-09-13T12:44:42.536Z,58.06
2022-09-13T12:47:38.718Z,59.14
2022-09-13T12:50:45.533Z,58.30
2022-09-13T12:53:57.003Z,56.80
2022-09-13T12:56:56.907Z,54.87
2022-09-13T12:59:53.183Z,58.83
2022-09-13T13:02:33.569Z,56.69
2022-09-13T13:05:06.264Z,55.37
2022-09-13T13:07:39.411Z,56.31
2022-09-13T13:10:27.268Z,53.75
2022-09-13T13:13:16.668Z,59.45
2022-09-13T13:16:22.045Z,58.72
2022-09-13T13:18:54.642Z,57.74
2022-09-13T13:21:33.887Z,57.21
2022-09-13T13:24:40.503Z,53.85
2022-09-13T13:27:48.192Z,54.96
2022-09-13T13:30:52.554Z,52.68
2022-09-13T13:33:49.125Z,52.94
2022-09-13T13:36:27.858Z,49.88
2022-09-13T13:38:57.767Z,49.57
2022-09-13T13:41:55.430Z,49.94
2022-09-13T13:45:17.979Z,49.64
2022-09-13T13:48:12.506Z,49.94
2022-09-13T13:51:25.181Z,52.58
2022-09-13T13:54:07.327Z,52.18
2022-09-13T13:56:52.266Z,53.40
2022-09-13T13:59:28.476Z,56.54
2022-09-13T14:02:15.355Z,54.31
2022-09-13T14:05:14.804Z,54.68
2022-09-13T14:08:37.339Z,57.27
2022-09-13T14:11:21.943Z,57.65
2022-09-13T14:14:10.949Z,57.92
2022-09-13T14:16:58.476Z,59.68
2022-09-13T14:19:31.498Z,58.13
2022-09-13T14:22:16.933Z,56.46
2022-09-13T14:24:49.875Z,57.01
2022-09-13T14:27:23.356Z,59.68
2022-09-13T14:29:56.778Z,59.26
2022-09-13T14:32:36.296Z,59.38
2022-09-13T14:35:26.602Z,58.69
2022-09-13T14:37:57.534Z,59.40
2022-09-13T14:40:30.306Z,61.02
2022-09-13T14:42:59.004Z,61.74
2022-09-13T14:45:33.305Z,62.92
2022-09-13T14:48:10.085Z,63.89
2022-09-13T14:50:47.438Z,64.40
2022-09-13T14:53:21.343Z,63.30
2022-09-13T14:55:57.770Z,64.30
2022-09-13T14:58:30.508Z,65.08
2022-09-13T15:01:04.944Z,64.74
2022-09-13T15:03:34.101Z,65.09
2022-09-13T15:06:06.234Z,64.78
2022-09-13T15:08:54.130Z,65.95
2022-09-13T15:11:42.792Z,65.32
2022-09-13T15:14:34.993Z,65.23
2022-09-13T15:17:11.211Z,64.85
2022-09-13T15:19:42.866Z,65.20
2022-09-13T15:22:24.495Z,66.00
2022-09-13T15:24:56.485Z,65.44
2022-09-13T15:27:31.581Z,65.91
2022-09-13T15:30:04.315Z,66.95
2022-09-13T15:32:40.854Z,66.11
2022-09-13T15:35:23.804Z,66.52
2022-09-13T15:38:02.430Z,67.09
2022-09-13T15:40:42.038Z,68.62
2022-09-13T15:43:12.305Z,67.91
2022-09-13T15:45:41.479Z,68.72
2022-09-13T15:48:25.084Z,69.04
2022-09-13T15:51:11.411Z,68.90
2022-09-13T15:53:42.507Z,69.55
2022-09-13T15:56:18.552Z,69.45
2022-09-13T15:58:57.200Z,69.23
2022-09-13T16:01:27.653Z,69.09
2022-09-13T16:03:56.256Z,69.31
2022-09-13T16:06:25.325Z,70.35
2022-09-13T16:08:54.018Z,70.37
2022-09-13T16:11:22.811Z,68.96
2022-09-13T16:13:52.774Z,69.58
2022-09-13T16:16:21.437Z,70.35
2022-09-13T16:18:50.107Z,70.19
2022-09-13T16:21:18.788Z,70.37
2022-09-13T16:23:48.572Z,70.56
2022-09-13T16:26:17.246Z,70.30
2022-09-13T16:28:45.856Z,70.40
2022-09-13T16:31:16.723Z,70.84
2022-09-13T16:33:45.424Z,71.78
2022-09-13T16:36:14.576Z,70.86
2022-09-13T16:38:43.253Z,70.70
2022-09-13T16:41:12.066Z,71.65
2022-09-13T16:43:41.102Z,71.70
2022-09-13T16:46:11.753Z,71.21
2022-09-13T16:48:42.270Z,71.28
2022-09-13T16:51:14.139Z,70.86
2022-09-13T16:53:44.610Z,70.71
2022-09-13T16:56:17.350Z,71.27
2022-09-13T16:58:47.897Z,71.38
2022-09-13T17:01:19.443Z,72.11
2022-09-13T17:03:54.052Z,72.72
2022-09-13T17:06:26.846Z,73.35
2022-09-13T17:09:00.981Z,73.12
2022-09-13T17:11:33.791Z,73.53
2022-09-13T17:14:05.010Z,73.97
2022-09-13T17:16:38.150Z,74.42
2022-09-13T17:19:14.045Z,74.70
2022-09-13T17:21:44.621Z,74.95
2022-09-13T17:24:15.097Z,74.94
2022-09-13T17:26:44.555Z,74.87
2022-09-13T17:29:14.146Z,74.75
2022-09-13T17:31:43.928Z,75.32
2022-09-13T17:34:15.315Z,75.72
2022-09-13T17:36:50.513Z,75.41
2022-09-13T17:39:20.705Z,75.72
2022-09-13T17:41:51.277Z,75.53
2022-09-13T17:44:20.160Z,76.01
2022-09-13T17:46:49.210Z,76.12
2022-09-13T17:49:20.886Z,76.34
2022-09-13T17:51:51.363Z,76.44
2022-09-13T17:54:24.793Z,76.78
2022-09-13T17:56:57.648Z,76.87
2022-09-13T17:59:28.225Z,76.83
2022-09-13T18:01:59.661Z,76.86
2022-09-13T18:04:30.876Z,76.96
2022-09-13T18:07:00.613Z,76.91
2022-09-13T18:09:29.909Z,76.73
2022-09-13T18:11:59.013Z,77.39
2022-09-13T18:14:28.508Z,77.34
2022-09-13T18:16:58.056Z,77.83
2022-09-13T18:19:44.737Z,77.84
2022-09-13T18:22:16.673Z,77.57
2022-09-13T18:24:45.785Z,77.79
2022-09-13T18:27:15.215Z,77.77
2022-09-13T18:29:47.088Z,77.73
2022-09-13T18:32:16.652Z,77.41
2022-09-13T18:34:48.189Z,77.45
2022-09-13T18:37:18.485Z,77.52
2022-09-13T18:39:53.713Z,77.66
2022-09-13T18:42:49.407Z,77.55
2022-09-13T18:45:40.923Z,78.00
2022-09-13T18:48:09.916Z,78.29
2022-09-13T18:50:44.158Z,78.35
2022-09-13T18:53:15.319Z,78.21
2022-09-13T18:55:44.074Z,78.58
2022-09-13T18:58:13.851Z,78.75
2022-09-13T19:00:43.313Z,78.31
2022-09-13T19:03:13.084Z,78.58
2022-09-13T19:05:42.406Z,78.35
2022-09-13T19:08:13.930Z,78.82
2022-09-13T19:10:43.477Z,78.64
2022-09-13T19:13:12.706Z,78.85
2022-09-13T19:15:42.717Z,78.55
2022-09-13T19:18:11.567Z,78.78
2022-09-13T19:20:47.902Z,78.88
2022-09-13T19:23:18.935Z,78.99
2022-09-13T19:25:48.877Z,79.07
2022-09-13T19:28:17.650Z,79.07
2022-09-13T19:30:50.038Z,78.98
2022-09-13T19:33:20.294Z,79.00
2022-09-13T19:35:49.434Z,79.40
2022-09-13T19:38:19.816Z,79.25
2022-09-13T19:40:58.142Z,79.62
2022-09-13T19:43:30.083Z,79.13
2022-09-13T19:46:01.187Z,78.71
2022-09-13T19:48:39.486Z,79.22
2022-09-13T19:51:36.137Z,78.53
2022-09-13T19:54:08.333Z,78.31
2022-09-13T19:58:07.689Z,78.30
2022-09-13T20:00:39.508Z,78.45
2022-09-13T20:03:08.875Z,78.70
2022-09-13T20:05:39.003Z,78.77
2022-09-13T20:08:08.258Z,78.89
2022-09-13T20:10:40.326Z,78.64
2022-09-13T20:13:08.966Z,78.92
2022-09-13T20:15:40.293Z,78.60
2022-09-13T20:18:13.255Z,78.86
2022-09-13T20:20:43.230Z,78.77
2022-09-13T20:23:12.208Z,78.70
2022-09-13T20:25:43.324Z,79.01
2022-09-13T20:28:12.515Z,78.51
2022-09-13T20:30:42.378Z,78.43
2022-09-13T20:33:11.650Z,78.84
2022-09-13T20:35:41.454Z,78.48
2022-09-13T20:38:10.281Z,78.56
2022-09-13T20:40:39.084Z,79.06
2022-09-13T20:43:09.109Z,79.01
2022-09-13T20:45:37.721Z,79.11
2022-09-13T20:48:06.257Z,79.51
2022-09-13T20:50:35.206Z,79.64
2022-09-13T20:53:03.863Z,80.22
2022-09-13T20:55:32.469Z,80.57
2022-09-13T20:58:01.665Z,80.71
2022-09-13T21:00:31.738Z,80.72
2022-09-13T21:03:00.446Z,80.59
2022-09-13T21:05:29.065Z,80.75
2022-09-13T21:08:14.882Z,80.37
2022-09-13T21:10:43.601Z,80.36
2022-09-13T21:13:12.269Z,80.39
2022-09-13T21:15:42.209Z,80.39
2022-09-13T21:18:10.833Z,80.43
2022-09-13T21:20:39.446Z,80.34
2022-09-13T21:23:08.277Z,80.45
2022-09-13T21:25:37.801Z,80.55
2022-09-13T21:28:06.620Z,81.15
2022-09-13T21:30:35.280Z,80.68
2022-09-13T21:33:05.543Z,81.34
2022-09-13T21:35:40.436Z,81.21
2022-09-13T21:38:09.049Z,80.92
2022-09-13T21:40:37.613Z,81.08
2022-09-13T21:43:06.761Z,81.47
2022-09-13T21:45:35.449Z,81.24
2022-09-13T21:48:06.379Z,81.10
2022-09-13T21:50:34.993Z,81.39
2022-09-13T21:53:03.601Z,81.51
2022-09-13T21:55:32.272Z,81.86
2022-09-13T21:58:04.014Z,81.79
2022-09-13T22:00:33.446Z,81.57
2022-09-13T22:03:02.196Z,81.51
2022-09-13T22:05:32.471Z,81.66
2022-09-13T22:08:01.188Z,81.72
2022-09-13T22:10:29.916Z,81.81
2022-09-13T22:12:58.519Z,81.53
2022-09-13T22:15:27.188Z,81.97
2022-09-13T22:17:55.841Z,82.02
2022-09-13T22:20:24.396Z,81.95
2022-09-13T22:22:54.380Z,82.16
2022-09-13T22:25:23.261Z,82.43
2022-09-13T22:27:51.860Z,82.35
2022-09-13T22:30:20.508Z,82.65
2022-09-13T22:32:49.165Z,82.38
2022-09-13T22:35:17.966Z,82.42
2022-09-13T22:37:46.548Z,82.53
2022-09-13T22:40:16.829Z,82.32
2022-09-13T22:42:45.443Z,82.48
2022-09-13T22:45:14.062Z,82.35
2022-09-13T22:47:42.624Z,82.67
2022-09-13T22:50:11.425Z,82.58
2022-09-13T22:52:40.445Z,82.64
2022-09-13T22:55:09.934Z,82.70
2022-09-13T22:57:40.029Z,83.05
2022-09-13T23:00:11.609Z,83.07
2022-09-13T23:02:42.962Z,83.08
2022-09-13T23:05:15.297Z,83.21
2022-09-13T23:07:43.996Z,83.24
2022-09-13T23:10:12.704Z,83.27
2022-09-13T23:12:42.838Z,83.13
2022-09-13T23:15:12.604Z,83.48
2022-09-13T23:17:41.495Z,83.36
2022-09-13T23:20:11.401Z,83.59
2022-09-13T23:22:41.479Z,83.81
2022-09-13T23:25:10.590Z,83.47
2022-09-13T23:27:39.761Z,83.62
2022-09-13T23:30:11.960Z,83.04
2022-09-13T23:32:40.731Z,82.84
2022-09-13T23:35:11.699Z,83.38
2022-09-13T23:37:40.846Z,83.44
2022-09-13T23:40:10.897Z,83.45
2022-09-13T23:42:39.735Z,82.94
2022-09-13T23:45:12.217Z,83.11
2022-09-13T23:47:41.246Z,83.46
2022-09-13T23:50:10.964Z,83.60
2022-09-13T23:52:39.720Z,83.65
2022-09-13T23:55:09.967Z,83.99
2022-09-13T23:57:38.994Z,83.75
